sensor_id;sensor_type;location;lat;lon;timestamp;pressure;altitude;pressure_sealevel;temperature;humidity
10014;BME280;45684;48.358;10.746;2022-07-19T00:00:18;96673.19;;;18.27;76.77
10014;BME280;45684;48.358;10.746;2022-07-19T00:02:46;96680.47;;;18.19;78.26
10014;BME280;45684;48.358;10.746;2022-07-19T00:05:14;96674.81;;;18.28;77.54
10014;BME280;45684;48.358;10.746;2022-07-19T00:07:43;96672.59;;;18.33;76.60
10014;BME280;45684;48.358;10.746;2022-07-19T00:10:15;96671.19;;;18.24;77.42
10014;BME280;45684;48.358;10.746;2022-07-19T00:12:44;96677.09;;;18.26;78.01
10014;BME280;45684;48.358;10.746;2022-07-19T00:15:14;96676.47;;;18.17;79.05
10014;BME280;45684;48.358;10.746;2022-07-19T00:17:43;96676.03;;;18.15;78.42
10014;BME280;45684;48.358;10.746;2022-07-19T00:20:14;96672.16;;;18.16;78.66
10014;BME280;45684;48.358;10.746;2022-07-19T00:22:43;96682.31;;;18.15;79.02
10014;BME280;45684;48.358;10.746;2022-07-19T00:25:12;96673.63;;;18.13;79.44
10014;BME280;45684;48.358;10.746;2022-07-19T00:27:40;96675.25;;;18.14;78.77
10014;BME280;45684;48.358;10.746;2022-07-19T00:30:10;96672.69;;;18.05;78.91
10014;BME280;45684;48.358;10.746;2022-07-19T00:32:38;96678.22;;;18.09;78.86
10014;BME280;45684;48.358;10.746;2022-07-19T00:35:06;96675.06;;;18.07;79.46
10014;BME280;45684;48.358;10.746;2022-07-19T00:37:34;96676.94;;;18.19;79.17
10014;BME280;45684;48.358;10.746;2022-07-19T00:40:08;96667.47;;;18.16;78.85
10014;BME280;45684;48.358;10.746;2022-07-19T00:42:37;96670.72;;;18.06;79.52
10014;BME280;45684;48.358;10.746;2022-07-19T00:45:06;96665.09;;;18.15;79.05
10014;BME280;45684;48.358;10.746;2022-07-19T00:47:34;96677.69;;;18.03;79.69
10014;BME280;45684;48.358;10.746;2022-07-19T00:50:03;96673.63;;;17.97;80.03
10014;BME280;45684;48.358;10.746;2022-07-19T00:52:32;96683.69;;;17.93;80.02
10014;BME280;45684;48.358;10.746;2022-07-19T00:55:01;96677.41;;;17.77;80.41
10014;BME280;45684;48.358;10.746;2022-07-19T00:57:30;96683.25;;;17.63;81.10
10014;BME280;45684;48.358;10.746;2022-07-19T01:00:00;96680.06;;;17.61;81.29
10014;BME280;45684;48.358;10.746;2022-07-19T01:02:29;96671.91;;;17.49;82.62
10014;BME280;45684;48.358;10.746;2022-07-19T01:04:58;96678.63;;;17.51;82.41
10014;BME280;45684;48.358;10.746;2022-07-19T01:07:27;96679.41;;;17.52;83.20
10014;BME280;45684;48.358;10.746;2022-07-19T01:09:55;96679.09;;;17.53;83.57
10014;BME280;45684;48.358;10.746;2022-07-19T01:12:23;96674.47;;;17.57;84.19
10014;BME280;45684;48.358;10.746;2022-07-19T01:14:55;96670.88;;;17.53;84.41
10014;BME280;45684;48.358;10.746;2022-07-19T01:17:25;96674.88;;;17.44;83.21
10014;BME280;45684;48.358;10.746;2022-07-19T01:19:53;96674.41;;;17.26;83.64
10014;BME280;45684;48.358;10.746;2022-07-19T01:22:22;96674.84;;;17.16;84.64
10014;BME280;45684;48.358;10.746;2022-07-19T01:24:50;96669.88;;;17.05;84.94
10014;BME280;45684;48.358;10.746;2022-07-19T01:27:18;96678.31;;;17.00;85.50
10014;BME280;45684;48.358;10.746;2022-07-19T01:29:46;96674.59;;;16.93;86.36
10014;BME280;45684;48.358;10.746;2022-07-19T01:32:14;96675.84;;;16.95;86.52
10014;BME280;45684;48.358;10.746;2022-07-19T01:34:42;96676.50;;;16.92;86.56
10014;BME280;45684;48.358;10.746;2022-07-19T01:37:10;96679.03;;;16.97;86.29
10014;BME280;45684;48.358;10.746;2022-07-19T01:39:39;96670.25;;;16.92;86.47
10014;BME280;45684;48.358;10.746;2022-07-19T01:42:06;96668.31;;;16.92;86.98
10014;BME280;45684;48.358;10.746;2022-07-19T01:44:34;96662.84;;;16.92;86.50
10014;BME280;45684;48.358;10.746;2022-07-19T01:47:02;96672.19;;;16.91;85.83
10014;BME280;45684;48.358;10.746;2022-07-19T01:49:30;96668.25;;;16.76;86.29
10014;BME280;45684;48.358;10.746;2022-07-19T01:51:58;96674.03;;;16.63;87.13
10014;BME280;45684;48.358;10.746;2022-07-19T01:54:25;96669.59;;;16.58;87.55
10014;BME280;45684;48.358;10.746;2022-07-19T01:56:55;96673.22;;;16.50;88.17
10014;BME280;45684;48.358;10.746;2022-07-19T01:59:22;96659.38;;;16.43;88.48
10014;BME280;45684;48.358;10.746;2022-07-19T02:01:50;96662.34;;;16.38;88.93
10014;BME280;45684;48.358;10.746;2022-07-19T02:04:18;96672.22;;;16.30;89.49
10014;BME280;45684;48.358;10.746;2022-07-19T02:06:47;96660.38;;;16.26;89.83
10014;BME280;45684;48.358;10.746;2022-07-19T02:09:15;96662.28;;;16.13;90.43
10014;BME280;45684;48.358;10.746;2022-07-19T02:11:43;96664.59;;;16.11;90.96
10014;BME280;45684;48.358;10.746;2022-07-19T02:14:12;96657.66;;;16.14;90.84
10014;BME280;45684;48.358;10.746;2022-07-19T02:16:40;96649.78;;;16.12;90.88
10014;BME280;45684;48.358;10.746;2022-07-19T02:19:08;96653.00;;;16.14;91.16
10014;BME280;45684;48.358;10.746;2022-07-19T02:21:36;96645.38;;;16.20;90.81
10014;BME280;45684;48.358;10.746;2022-07-19T02:24:06;96643.22;;;16.25;92.07
10014;BME280;45684;48.358;10.746;2022-07-19T02:26:35;96646.06;;;16.29;91.72
10014;BME280;45684;48.358;10.746;2022-07-19T02:29:05;96639.13;;;16.44;89.59
10014;BME280;45684;48.358;10.746;2022-07-19T02:31:35;96636.50;;;16.35;90.41
10014;BME280;45684;48.358;10.746;2022-07-19T02:34:03;96629.13;;;16.23;90.50
10014;BME280;45684;48.358;10.746;2022-07-19T02:36:31;96633.53;;;16.16;90.54
10014;BME280;45684;48.358;10.746;2022-07-19T02:38:59;96633.78;;;16.11;90.03
10014;BME280;45684;48.358;10.746;2022-07-19T02:41:27;96634.78;;;16.06;90.69
10014;BME280;45684;48.358;10.746;2022-07-19T02:43:55;96626.59;;;15.94;91.68
10014;BME280;45684;48.358;10.746;2022-07-19T02:46:22;96636.13;;;15.88;91.70
10014;BME280;45684;48.358;10.746;2022-07-19T02:48:52;96632.59;;;15.87;91.41
10014;BME280;45684;48.358;10.746;2022-07-19T02:51:20;96628.88;;;15.92;91.07
10014;BME280;45684;48.358;10.746;2022-07-19T02:53:47;96630.19;;;15.73;91.87
10014;BME280;45684;48.358;10.746;2022-07-19T02:56:15;96633.00;;;15.65;92.72
10014;BME280;45684;48.358;10.746;2022-07-19T02:58:43;96629.34;;;15.61;93.35
10014;BME280;45684;48.358;10.746;2022-07-19T03:01:11;96633.19;;;15.60;93.38
10014;BME280;45684;48.358;10.746;2022-07-19T03:03:39;96636.38;;;15.62;93.47
10014;BME280;45684;48.358;10.746;2022-07-19T03:06:17;96630.47;;;15.60;93.11
10014;BME280;45684;48.358;10.746;2022-07-19T03:08:45;96635.13;;;15.59;93.33
10014;BME280;45684;48.358;10.746;2022-07-19T03:11:13;96647.19;;;15.58;93.91
10014;BME280;45684;48.358;10.746;2022-07-19T03:13:41;96629.03;;;15.62;94.55
10014;BME280;45684;48.358;10.746;2022-07-19T03:16:09;96627.72;;;15.93;91.31
10014;BME280;45684;48.358;10.746;2022-07-19T03:18:37;96623.75;;;16.02;89.27
10014;BME280;45684;48.358;10.746;2022-07-19T03:21:05;96623.88;;;16.06;88.70
10014;BME280;45684;48.358;10.746;2022-07-19T03:23:35;96617.94;;;16.04;88.85
10014;BME280;45684;48.358;10.746;2022-07-19T03:26:04;96613.97;;;16.01;89.58
10014;BME280;45684;48.358;10.746;2022-07-19T03:28:33;96609.88;;;15.83;90.88
10014;BME280;45684;48.358;10.746;2022-07-19T03:31:01;96613.13;;;15.64;93.00
10014;BME280;45684;48.358;10.746;2022-07-19T03:33:29;96610.06;;;15.66;93.65
10014;BME280;45684;48.358;10.746;2022-07-19T03:35:57;96622.94;;;15.44;95.80
10014;BME280;45684;48.358;10.746;2022-07-19T03:38:25;96622.34;;;15.39;94.88
10014;BME280;45684;48.358;10.746;2022-07-19T03:40:54;96624.31;;;15.17;96.39
10014;BME280;45684;48.358;10.746;2022-07-19T03:43:22;96621.06;;;15.03;97.71
10014;BME280;45684;48.358;10.746;2022-07-19T03:45:49;96614.94;;;15.06;97.40
10014;BME280;45684;48.358;10.746;2022-07-19T03:48:17;96626.97;;;15.05;98.11
10014;BME280;45684;48.358;10.746;2022-07-19T03:50:47;96615.09;;;15.10;98.11
10014;BME280;45684;48.358;10.746;2022-07-19T03:53:15;96620.31;;;15.15;98.02
10014;BME280;45684;48.358;10.746;2022-07-19T03:55:43;96619.53;;;15.14;97.58
10014;BME280;45684;48.358;10.746;2022-07-19T03:58:12;96614.28;;;15.09;97.60
10014;BME280;45684;48.358;10.746;2022-07-19T04:00:40;96618.50;;;15.07;97.98
10014;BME280;45684;48.358;10.746;2022-07-19T04:03:08;96622.47;;;15.09;98.31
10014;BME280;45684;48.358;10.746;2022-07-19T04:05:36;96626.19;;;15.04;98.42
10014;BME280;45684;48.358;10.746;2022-07-19T04:08:04;96626.97;;;15.05;98.94
10014;BME280;45684;48.358;10.746;2022-07-19T04:10:32;96625.38;;;15.04;98.67
10014;BME280;45684;48.358;10.746;2022-07-19T04:13:00;96632.63;;;15.00;99.67
10014;BME280;45684;48.358;10.746;2022-07-19T04:15:29;96628.13;;;15.04;99.44
10014;BME280;45684;48.358;10.746;2022-07-19T04:17:57;96624.38;;;15.09;99.58
10014;BME280;45684;48.358;10.746;2022-07-19T04:20:25;96624.97;;;15.14;99.92
10014;BME280;45684;48.358;10.746;2022-07-19T04:22:53;96626.03;;;15.22;99.97
10014;BME280;45684;48.358;10.746;2022-07-19T04:25:23;96632.88;;;15.28;99.57
10014;BME280;45684;48.358;10.746;2022-07-19T04:27:50;96622.69;;;15.37;98.50
10014;BME280;45684;48.358;10.746;2022-07-19T04:30:19;96629.28;;;15.36;98.56
10014;BME280;45684;48.358;10.746;2022-07-19T04:32:48;96635.97;;;15.39;98.68
10014;BME280;45684;48.358;10.746;2022-07-19T04:35:16;96636.59;;;15.23;99.42
10014;BME280;45684;48.358;10.746;2022-07-19T04:37:43;96642.53;;;15.25;99.88
10014;BME280;45684;48.358;10.746;2022-07-19T04:40:12;96644.13;;;15.26;99.77
10014;BME280;45684;48.358;10.746;2022-07-19T04:42:40;96639.50;;;15.39;99.60
10014;BME280;45684;48.358;10.746;2022-07-19T04:45:08;96643.06;;;15.52;99.24
10014;BME280;45684;48.358;10.746;2022-07-19T04:47:36;96632.78;;;15.70;99.04
10014;BME280;45684;48.358;10.746;2022-07-19T04:50:07;96637.59;;;15.85;99.33
10014;BME280;45684;48.358;10.746;2022-07-19T04:52:34;96637.88;;;16.04;98.21
10014;BME280;45684;48.358;10.746;2022-07-19T04:55:05;96629.56;;;16.13;100.00
10014;BME280;45684;48.358;10.746;2022-07-19T04:57:33;96634.09;;;16.21;99.24
10014;BME280;45684;48.358;10.746;2022-07-19T05:00:01;96639.81;;;16.28;99.25
10014;BME280;45684;48.358;10.746;2022-07-19T05:02:30;96639.69;;;16.37;98.41
10014;BME280;45684;48.358;10.746;2022-07-19T05:04:57;96626.72;;;16.46;99.51
10014;BME280;45684;48.358;10.746;2022-07-19T05:07:27;96639.56;;;16.58;100.00
10014;BME280;45684;48.358;10.746;2022-07-19T05:09:55;96626.13;;;16.65;100.00
10014;BME280;45684;48.358;10.746;2022-07-19T05:12:26;96638.19;;;16.76;98.12
10014;BME280;45684;48.358;10.746;2022-07-19T05:14:54;96636.91;;;16.86;97.58
10014;BME280;45684;48.358;10.746;2022-07-19T05:17:22;96636.78;;;16.95;96.22
10014;BME280;45684;48.358;10.746;2022-07-19T05:19:50;96634.72;;;17.04;95.77
10014;BME280;45684;48.358;10.746;2022-07-19T05:22:18;96636.50;;;17.12;95.96
10014;BME280;45684;48.358;10.746;2022-07-19T05:24:47;96643.06;;;17.23;96.10
10014;BME280;45684;48.358;10.746;2022-07-19T05:27:15;96639.41;;;17.31;96.32
10014;BME280;45684;48.358;10.746;2022-07-19T05:29:43;96633.00;;;17.40;97.72
10014;BME280;45684;48.358;10.746;2022-07-19T05:32:11;96635.13;;;17.46;97.97
10014;BME280;45684;48.358;10.746;2022-07-19T05:34:38;96633.47;;;17.57;96.15
10014;BME280;45684;48.358;10.746;2022-07-19T05:37:06;96638.09;;;17.69;97.36
10014;BME280;45684;48.358;10.746;2022-07-19T05:39:34;96632.13;;;17.79;97.93
10014;BME280;45684;48.358;10.746;2022-07-19T05:42:03;96634.88;;;17.95;100.00
10014;BME280;45684;48.358;10.746;2022-07-19T05:44:31;96625.34;;;18.05;98.98
10014;BME280;45684;48.358;10.746;2022-07-19T05:46:59;96632.22;;;18.15;97.23
10014;BME280;45684;48.358;10.746;2022-07-19T05:49:27;96632.13;;;18.27;96.28
10014;BME280;45684;48.358;10.746;2022-07-19T05:51:55;96629.28;;;18.39;94.70
10014;BME280;45684;48.358;10.746;2022-07-19T05:54:23;96634.22;;;18.49;93.41
10014;BME280;45684;48.358;10.746;2022-07-19T05:56:52;96625.91;;;18.61;93.23
10014;BME280;45684;48.358;10.746;2022-07-19T05:59:22;96629.59;;;18.69;93.39
10014;BME280;45684;48.358;10.746;2022-07-19T06:01:49;96631.59;;;18.88;93.94
10014;BME280;45684;48.358;10.746;2022-07-19T06:04:17;96620.09;;;18.98;91.39
10014;BME280;45684;48.358;10.746;2022-07-19T06:06:45;96621.47;;;19.08;92.16
10014;BME280;45684;48.358;10.746;2022-07-19T06:09:13;96612.00;;;19.25;89.55
10014;BME280;45684;48.358;10.746;2022-07-19T06:11:42;96623.25;;;19.39;87.46
10014;BME280;45684;48.358;10.746;2022-07-19T06:14:10;96624.25;;;19.50;85.61
10014;BME280;45684;48.358;10.746;2022-07-19T06:16:40;96624.56;;;19.65;85.50
10014;BME280;45684;48.358;10.746;2022-07-19T06:19:08;96627.88;;;19.74;85.24
10014;BME280;45684;48.358;10.746;2022-07-19T06:21:36;96632.25;;;19.78;85.05
10014;BME280;45684;48.358;10.746;2022-07-19T06:24:05;96639.16;;;19.92;85.10
10014;BME280;45684;48.358;10.746;2022-07-19T06:26:32;96646.31;;;19.96;84.16
10014;BME280;45684;48.358;10.746;2022-07-19T06:29:00;96641.78;;;20.07;84.01
10014;BME280;45684;48.358;10.746;2022-07-19T06:31:28;96642.72;;;20.15;82.01
10014;BME280;45684;48.358;10.746;2022-07-19T06:33:58;96642.16;;;20.29;81.37
10014;BME280;45684;48.358;10.746;2022-07-19T06:36:26;96642.69;;;20.38;82.25
10014;BME280;45684;48.358;10.746;2022-07-19T06:38:54;96630.06;;;20.56;79.66
10014;BME280;45684;48.358;10.746;2022-07-19T06:41:22;96637.53;;;20.59;79.11
10014;BME280;45684;48.358;10.746;2022-07-19T06:43:56;96630.72;;;20.76;77.50
10014;BME280;45684;48.358;10.746;2022-07-19T06:46:24;96628.19;;;20.91;77.90
10014;BME280;45684;48.358;10.746;2022-07-19T06:48:52;96629.06;;;20.98;76.95
10014;BME280;45684;48.358;10.746;2022-07-19T06:51:21;96624.44;;;21.06;78.08
10014;BME280;45684;48.358;10.746;2022-07-19T06:53:49;96630.06;;;21.13;75.98
10014;BME280;45684;48.358;10.746;2022-07-19T06:56:17;96623.78;;;21.16;74.86
10014;BME280;45684;48.358;10.746;2022-07-19T06:58:44;96632.56;;;21.25;75.17
10014;BME280;45684;48.358;10.746;2022-07-19T07:01:13;96628.47;;;21.42;74.69
10014;BME280;45684;48.358;10.746;2022-07-19T07:03:41;96635.31;;;21.55;72.80
10014;BME280;45684;48.358;10.746;2022-07-19T07:06:09;96636.16;;;21.59;73.12
10014;BME280;45684;48.358;10.746;2022-07-19T07:08:38;96640.13;;;21.65;73.32
10014;BME280;45684;48.358;10.746;2022-07-19T07:11:06;96631.59;;;21.74;72.72
10014;BME280;45684;48.358;10.746;2022-07-19T07:13:34;96632.91;;;21.87;70.03
10014;BME280;45684;48.358;10.746;2022-07-19T07:16:02;96634.66;;;22.10;70.06
10014;BME280;45684;48.358;10.746;2022-07-19T07:18:30;96634.03;;;22.20;68.81
10014;BME280;45684;48.358;10.746;2022-07-19T07:20:58;96636.94;;;22.41;62.99
10014;BME280;45684;48.358;10.746;2022-07-19T07:23:26;96633.88;;;22.54;63.65
10014;BME280;45684;48.358;10.746;2022-07-19T07:25:56;96632.41;;;22.67;63.57
10014;BME280;45684;48.358;10.746;2022-07-19T07:28:23;96628.09;;;22.73;63.80
10014;BME280;45684;48.358;10.746;2022-07-19T07:30:52;96625.78;;;22.79;63.04
10014;BME280;45684;48.358;10.746;2022-07-19T07:33:21;96628.31;;;23.02;65.32
10014;BME280;45684;48.358;10.746;2022-07-19T07:35:49;96614.56;;;23.16;61.02
10014;BME280;45684;48.358;10.746;2022-07-19T07:38:17;96617.03;;;23.32;60.90
10014;BME280;45684;48.358;10.746;2022-07-19T07:40:44;96621.78;;;23.42;59.88
10014;BME280;45684;48.358;10.746;2022-07-19T07:43:14;96606.44;;;23.52;59.12
10014;BME280;45684;48.358;10.746;2022-07-19T07:45:42;96609.28;;;23.70;57.56
10014;BME280;45684;48.358;10.746;2022-07-19T07:48:10;96610.09;;;23.84;56.03
10014;BME280;45684;48.358;10.746;2022-07-19T07:50:38;96601.00;;;23.91;55.35
10014;BME280;45684;48.358;10.746;2022-07-19T07:53:05;96598.28;;;24.09;54.76
10014;BME280;45684;48.358;10.746;2022-07-19T07:55:33;96607.34;;;24.20;54.51
10014;BME280;45684;48.358;10.746;2022-07-19T07:58:06;96596.31;;;24.27;54.11
10014;BME280;45684;48.358;10.746;2022-07-19T08:00:36;96602.63;;;24.38;52.27
10014;BME280;45684;48.358;10.746;2022-07-19T08:03:04;96591.97;;;24.51;52.86
10014;BME280;45684;48.358;10.746;2022-07-19T08:05:33;96601.81;;;24.70;50.83
10014;BME280;45684;48.358;10.746;2022-07-19T08:08:02;96601.81;;;24.81;50.41
10014;BME280;45684;48.358;10.746;2022-07-19T08:10:31;96609.69;;;24.89;50.76
10014;BME280;45684;48.358;10.746;2022-07-19T08:12:59;96598.97;;;25.06;49.89
10014;BME280;45684;48.358;10.746;2022-07-19T08:15:33;96596.56;;;25.22;46.09
10014;BME280;45684;48.358;10.746;2022-07-19T08:18:04;96592.56;;;25.37;46.89
10014;BME280;45684;48.358;10.746;2022-07-19T08:20:32;96602.38;;;25.53;44.54
10014;BME280;45684;48.358;10.746;2022-07-19T08:23:00;96598.72;;;25.66;41.80
10014;BME280;45684;48.358;10.746;2022-07-19T08:25:28;96594.72;;;25.75;42.52
10014;BME280;45684;48.358;10.746;2022-07-19T08:27:55;96592.28;;;25.87;41.26
10014;BME280;45684;48.358;10.746;2022-07-19T08:30:23;96591.84;;;25.96;41.66
10014;BME280;45684;48.358;10.746;2022-07-19T08:33:13;96591.34;;;26.12;40.29
10014;BME280;45684;48.358;10.746;2022-07-19T08:35:40;96594.44;;;26.21;39.33
10014;BME280;45684;48.358;10.746;2022-07-19T08:38:20;96575.38;;;26.27;39.72
10014;BME280;45684;48.358;10.746;2022-07-19T08:40:50;96587.13;;;26.45;38.99
10014;BME280;45684;48.358;10.746;2022-07-19T08:43:18;96583.78;;;26.61;39.28
10014;BME280;45684;48.358;10.746;2022-07-19T08:45:47;96580.06;;;26.78;39.01
10014;BME280;45684;48.358;10.746;2022-07-19T08:48:17;96578.34;;;26.91;37.93
10014;BME280;45684;48.358;10.746;2022-07-19T08:50:46;96585.72;;;27.05;37.86
10014;BME280;45684;48.358;10.746;2022-07-19T08:53:14;96577.28;;;27.16;38.70
10014;BME280;45684;48.358;10.746;2022-07-19T08:55:42;96580.72;;;27.27;38.58
10014;BME280;45684;48.358;10.746;2022-07-19T08:58:10;96583.69;;;27.43;37.50
10014;BME280;45684;48.358;10.746;2022-07-19T09:00:37;96577.16;;;27.57;36.19
10014;BME280;45684;48.358;10.746;2022-07-19T09:03:06;96573.00;;;27.69;36.87
10014;BME280;45684;48.358;10.746;2022-07-19T09:05:35;96585.53;;;27.84;36.29
10014;BME280;45684;48.358;10.746;2022-07-19T09:08:06;96577.78;;;27.99;34.79
10014;BME280;45684;48.358;10.746;2022-07-19T09:10:36;96575.50;;;28.17;35.48
10014;BME280;45684;48.358;10.746;2022-07-19T09:13:07;96573.66;;;28.34;34.57
10014;BME280;45684;48.358;10.746;2022-07-19T09:15:39;96573.41;;;28.48;33.42
10014;BME280;45684;48.358;10.746;2022-07-19T09:18:11;96577.88;;;28.66;33.36
10014;BME280;45684;48.358;10.746;2022-07-19T09:20:40;96579.53;;;28.83;33.47
10014;BME280;45684;48.358;10.746;2022-07-19T09:23:09;96578.16;;;28.95;33.14
10014;BME280;45684;48.358;10.746;2022-07-19T09:25:39;96565.03;;;29.15;33.06
10014;BME280;45684;48.358;10.746;2022-07-19T09:28:08;96577.38;;;29.34;32.59
10014;BME280;45684;48.358;10.746;2022-07-19T09:30:38;96568.34;;;29.46;31.94
10014;BME280;45684;48.358;10.746;2022-07-19T09:33:14;96570.50;;;29.59;31.53
10014;BME280;45684;48.358;10.746;2022-07-19T09:35:45;96562.88;;;29.79;32.15
10014;BME280;45684;48.358;10.746;2022-07-19T09:38:24;96570.03;;;29.96;31.23
10014;BME280;45684;48.358;10.746;2022-07-19T09:40:55;96564.16;;;30.27;30.75
10014;BME280;45684;48.358;10.746;2022-07-19T09:43:49;96561.72;;;30.45;29.43
10014;BME280;45684;48.358;10.746;2022-07-19T09:46:32;96564.47;;;30.78;29.47
10014;BME280;45684;48.358;10.746;2022-07-19T09:49:06;96573.69;;;30.91;28.90
10014;BME280;45684;48.358;10.746;2022-07-19T09:51:37;96566.41;;;31.23;27.94
10014;BME280;45684;48.358;10.746;2022-07-19T09:54:07;96565.34;;;31.33;28.29
10014;BME280;45684;48.358;10.746;2022-07-19T09:56:36;96559.81;;;31.59;28.26
10014;BME280;45684;48.358;10.746;2022-07-19T09:59:04;96564.50;;;31.74;28.40
10014;BME280;45684;48.358;10.746;2022-07-19T10:01:33;96554.81;;;31.92;28.28
10014;BME280;45684;48.358;10.746;2022-07-19T10:04:02;96544.16;;;32.25;27.32
10014;BME280;45684;48.358;10.746;2022-07-19T10:06:33;96549.84;;;32.47;26.04
10014;BME280;45684;48.358;10.746;2022-07-19T10:09:03;96553.16;;;32.55;26.36
10014;BME280;45684;48.358;10.746;2022-07-19T10:11:32;96545.50;;;32.68;26.65
10014;BME280;45684;48.358;10.746;2022-07-19T10:14:00;96548.97;;;32.72;25.78
10014;BME280;45684;48.358;10.746;2022-07-19T10:16:38;96543.44;;;32.94;25.62
10014;BME280;45684;48.358;10.746;2022-07-19T10:19:15;96543.69;;;33.09;25.64
10014;BME280;45684;48.358;10.746;2022-07-19T10:21:44;96535.66;;;33.20;26.32
10014;BME280;45684;48.358;10.746;2022-07-19T10:24:14;96541.06;;;33.36;25.52
10014;BME280;45684;48.358;10.746;2022-07-19T10:27:02;96540.28;;;33.58;24.49
10014;BME280;45684;48.358;10.746;2022-07-19T10:29:31;96540.91;;;33.62;24.92
10014;BME280;45684;48.358;10.746;2022-07-19T10:32:03;96531.28;;;33.63;24.37
10014;BME280;45684;48.358;10.746;2022-07-19T10:34:31;96523.16;;;33.96;25.07
10014;BME280;45684;48.358;10.746;2022-07-19T10:36:59;96527.75;;;34.21;24.75
10014;BME280;45684;48.358;10.746;2022-07-19T10:39:29;96519.13;;;34.56;24.30
10014;BME280;45684;48.358;10.746;2022-07-19T10:42:10;96524.41;;;34.81;23.80
10014;BME280;45684;48.358;10.746;2022-07-19T10:45:11;96520.06;;;34.98;23.28
10014;BME280;45684;48.358;10.746;2022-07-19T10:47:59;96511.88;;;35.28;24.02
10014;BME280;45684;48.358;10.746;2022-07-19T10:50:56;96509.84;;;35.28;23.20
10014;BME280;45684;48.358;10.746;2022-07-19T10:53:55;96505.47;;;35.37;23.49
10014;BME280;45684;48.358;10.746;2022-07-19T10:56:39;96511.22;;;35.51;22.54
10014;BME280;45684;48.358;10.746;2022-07-19T10:59:33;96500.69;;;35.70;22.68
10014;BME280;45684;48.358;10.746;2022-07-19T11:02:01;96501.25;;;35.84;22.10
10014;BME280;45684;48.358;10.746;2022-07-19T11:04:50;96495.63;;;36.17;22.46
10014;BME280;45684;48.358;10.746;2022-07-19T11:07:20;96496.72;;;36.19;22.46
10014;BME280;45684;48.358;10.746;2022-07-19T11:09:51;96498.16;;;36.39;21.89
10014;BME280;45684;48.358;10.746;2022-07-19T11:12:23;96496.09;;;36.63;21.88
10014;BME280;45684;48.358;10.746;2022-07-19T11:14:52;96491.19;;;36.88;22.62
10014;BME280;45684;48.358;10.746;2022-07-19T11:17:40;96486.88;;;37.01;21.19
10014;BME280;45684;48.358;10.746;2022-07-19T11:20:17;96490.19;;;37.15;21.65
10014;BME280;45684;48.358;10.746;2022-07-19T11:22:48;96486.00;;;37.10;21.55
10014;BME280;45684;48.358;10.746;2022-07-19T11:25:23;96485.63;;;37.32;20.70
10014;BME280;45684;48.358;10.746;2022-07-19T11:27:52;96485.75;;;37.38;21.14
10014;BME280;45684;48.358;10.746;2022-07-19T11:30:21;96486.22;;;37.51;20.86
10014;BME280;45684;48.358;10.746;2022-07-19T11:32:55;96485.13;;;37.63;20.47
10014;BME280;45684;48.358;10.746;2022-07-19T11:35:25;96484.91;;;37.67;20.37
10014;BME280;45684;48.358;10.746;2022-07-19T11:37:54;96471.56;;;37.82;21.03
10014;BME280;45684;48.358;10.746;2022-07-19T11:40:23;96469.25;;;38.16;20.40
10014;BME280;45684;48.358;10.746;2022-07-19T11:42:53;96473.69;;;38.22;19.81
10014;BME280;45684;48.358;10.746;2022-07-19T11:45:42;96485.50;;;38.41;20.44
10014;BME280;45684;48.358;10.746;2022-07-19T11:48:12;96471.63;;;38.84;19.60
10014;BME280;45684;48.358;10.746;2022-07-19T11:50:57;96482.06;;;38.98;18.66
10014;BME280;45684;48.358;10.746;2022-07-19T11:53:25;96476.19;;;39.02;18.43
10014;BME280;45684;48.358;10.746;2022-07-19T11:55:54;96474.75;;;38.86;18.83
10014;BME280;45684;48.358;10.746;2022-07-19T11:58:24;96463.88;;;38.79;19.79
10014;BME280;45684;48.358;10.746;2022-07-19T12:01:00;96462.41;;;39.10;19.56
10014;BME280;45684;48.358;10.746;2022-07-19T12:03:28;96465.47;;;39.32;19.15
10014;BME280;45684;48.358;10.746;2022-07-19T12:05:57;96469.50;;;39.57;18.04
10014;BME280;45684;48.358;10.746;2022-07-19T12:08:39;96461.38;;;39.65;18.35
10014;BME280;45684;48.358;10.746;2022-07-19T12:11:19;96460.25;;;39.88;18.71
10014;BME280;45684;48.358;10.746;2022-07-19T12:13:49;96462.91;;;40.03;17.48
10014;BME280;45684;48.358;10.746;2022-07-19T12:16:18;96467.06;;;40.08;18.26
10014;BME280;45684;48.358;10.746;2022-07-19T12:18:52;96467.72;;;40.34;18.58
10014;BME280;45684;48.358;10.746;2022-07-19T12:21:35;96454.25;;;40.18;18.28
10014;BME280;45684;48.358;10.746;2022-07-19T12:24:14;96443.25;;;40.42;18.04
10014;BME280;45684;48.358;10.746;2022-07-19T12:26:45;96453.59;;;40.45;18.20
10014;BME280;45684;48.358;10.746;2022-07-19T12:29:24;96438.22;;;40.63;18.04
10014;BME280;45684;48.358;10.746;2022-07-19T12:31:55;96439.53;;;40.79;17.77
10014;BME280;45684;48.358;10.746;2022-07-19T12:34:24;96442.13;;;40.77;18.37
10014;BME280;45684;48.358;10.746;2022-07-19T12:36:52;96435.63;;;40.71;17.90
10014;BME280;45684;48.358;10.746;2022-07-19T12:39:27;96425.94;;;41.00;17.20
10014;BME280;45684;48.358;10.746;2022-07-19T12:42:02;96427.75;;;41.20;17.10
10014;BME280;45684;48.358;10.746;2022-07-19T12:44:33;96417.94;;;41.26;15.81
10014;BME280;45684;48.358;10.746;2022-07-19T12:47:02;96424.13;;;41.02;17.43
10014;BME280;45684;48.358;10.746;2022-07-19T12:49:50;96423.09;;;41.17;16.68
10014;BME280;45684;48.358;10.746;2022-07-19T12:52:30;96425.94;;;41.17;16.00
10014;BME280;45684;48.358;10.746;2022-07-19T12:54:58;96434.72;;;41.30;16.03
10014;BME280;45684;48.358;10.746;2022-07-19T12:57:26;96425.69;;;41.15;15.74
10014;BME280;45684;48.358;10.746;2022-07-19T12:59:57;96426.16;;;40.91;16.64
10014;BME280;45684;48.358;10.746;2022-07-19T13:02:24;96418.44;;;41.02;16.16
10014;BME280;45684;48.358;10.746;2022-07-19T13:04:52;96418.97;;;40.95;16.08